createdAt,value
2018-06-25T00:00:40.436Z,74.20
2018-06-25T00:03:09.549Z,74.80
2018-06-25T00:05:38.638Z,75.89
2018-06-25T00:08:07.744Z,74.18
2018-06-25T00:10:36.838Z,74.84
2018-06-25T00:13:06.297Z,74.97
2018-06-25T00:15:35.709Z,75.34
2018-06-25T00:18:05.553Z,75.26
2018-06-25T00:20:34.649Z,74.43
2018-06-25T00:23:03.753Z,74.53
2018-06-25T00:25:32.853Z,75.57
2018-06-25T00:28:01.958Z,74.79
2018-06-25T00:30:31.082Z,74.56
2018-06-25T00:33:00.175Z,73.57
2018-06-25T00:35:29.287Z,73.36
2018-06-25T00:37:58.405Z,73.96
2018-06-25T00:40:27.498Z,73.51
2018-06-25T00:42:58.817Z,73.36
2018-06-25T00:45:28.850Z,73.96
2018-06-25T00:47:58.386Z,74.01
2018-06-25T00:50:27.717Z,73.59
2018-06-25T00:52:56.814Z,74.13
2018-06-25T00:55:25.942Z,74.20
2018-06-25T00:57:55.022Z,74.12
2018-06-25T01:00:24.229Z,74.66
2018-06-25T01:02:53.305Z,74.09
2018-06-25T01:05:22.420Z,73.46
2018-06-25T01:07:51.513Z,74.30
2018-06-25T01:10:20.610Z,74.27
2018-06-25T01:12:49.693Z,74.71
2018-06-25T01:15:18.801Z,74.57
2018-06-25T01:17:47.903Z,74.82
2018-06-25T01:20:17.033Z,75.73
2018-06-25T01:22:46.153Z,75.70
2018-06-25T01:25:15.253Z,76.15
2018-06-25T01:27:44.426Z,76.90
2018-06-25T01:30:13.573Z,76.77
2018-06-25T01:32:42.766Z,77.81
2018-06-25T01:35:11.901Z,76.98
2018-06-25T01:37:41.063Z,76.72
2018-06-25T01:40:10.150Z,77.51
2018-06-25T01:42:39.277Z,76.91
2018-06-25T01:45:08.406Z,76.03
2018-06-25T01:47:37.533Z,75.71
2018-06-25T01:50:06.704Z,76.15
2018-06-25T01:52:35.830Z,76.81
2018-06-25T01:55:04.962Z,77.60
2018-06-25T01:57:34.085Z,77.40
2018-06-25T02:00:03.287Z,76.39
2018-06-25T02:02:33.182Z,75.92
2018-06-25T02:05:02.334Z,76.03
2018-06-25T02:07:31.556Z,75.68
2018-06-25T02:10:00.661Z,74.89
2018-06-25T02:12:29.753Z,74.82
2018-06-25T02:14:58.873Z,76.19
2018-06-25T02:17:28.125Z,75.49
2018-06-25T02:19:57.271Z,74.96
2018-06-25T02:22:26.426Z,75.64
2018-06-25T02:24:55.669Z,75.85
2018-06-25T02:27:24.791Z,75.41
2018-06-25T02:29:55.426Z,76.16
2018-06-25T02:32:24.535Z,76.74
2018-06-25T02:34:53.622Z,75.95
2018-06-25T02:37:22.729Z,75.49
2018-06-25T02:39:51.834Z,75.57
2018-06-25T02:42:20.986Z,75.76
2018-06-25T02:44:50.071Z,75.79
2018-06-25T02:47:19.173Z,75.44
2018-06-25T02:49:48.301Z,74.74
2018-06-25T02:52:17.430Z,75.59
2018-06-25T02:54:46.526Z,75.56
2018-06-25T02:57:15.630Z,75.68
2018-06-25T02:59:44.794Z,75.24
2018-06-25T03:02:13.906Z,76.48
2018-06-25T03:04:43.025Z,76.05
2018-06-25T03:07:12.130Z,76.25
2018-06-25T03:09:41.221Z,76.32
2018-06-25T03:12:10.358Z,77.32
2018-06-25T03:14:39.734Z,77.64
2018-06-25T03:17:08.834Z,77.58
2018-06-25T03:19:37.929Z,77.70
2018-06-25T03:22:07.030Z,78.51
2018-06-25T03:24:36.161Z,78.90
2018-06-25T03:27:05.267Z,79.94
2018-06-25T03:29:34.374Z,80.21
2018-06-25T03:32:03.478Z,80.14
2018-06-25T03:34:32.655Z,79.74
2018-06-25T03:37:01.770Z,80.54
2018-06-25T03:39:30.885Z,80.28
2018-06-25T03:41:59.988Z,81.48
2018-06-25T03:44:29.089Z,81.59
2018-06-25T03:46:58.243Z,81.54
2018-06-25T03:49:27.397Z,82.00
2018-06-25T03:51:56.686Z,82.01
2018-06-25T03:54:26.118Z,82.25
2018-06-25T03:56:55.316Z,82.33
2018-06-25T03:59:24.404Z,82.67
2018-06-25T04:01:53.540Z,82.03
2018-06-25T04:04:22.757Z,81.72
2018-06-25T04:06:51.909Z,82.77
2018-06-25T04:09:20.993Z,82.62
2018-06-25T04:11:50.093Z,82.89
2018-06-25T04:14:19.185Z,81.90
2018-06-25T04:16:48.286Z,83.50
2018-06-25T04:19:17.389Z,83.51
2018-06-25T04:21:47.889Z,83.63
2018-06-25T04:24:17.090Z,83.70
2018-06-25T04:26:46.198Z,83.25
2018-06-25T04:29:15.281Z,83.92
2018-06-25T04:31:44.417Z,83.34
2018-06-25T04:34:13.538Z,83.48
2018-06-25T04:36:42.629Z,83.85
2018-06-25T04:39:11.793Z,83.75
2018-06-25T04:41:46.706Z,84.03
2018-06-25T04:44:15.829Z,84.70
2018-06-25T04:46:44.954Z,83.57
2018-06-25T04:49:14.057Z,83.76
2018-06-25T04:51:43.141Z,84.05
2018-06-25T04:54:12.247Z,82.52
2018-06-25T04:56:41.366Z,82.78
2018-06-25T04:59:10.583Z,84.17
2018-06-25T05:01:39.705Z,84.17
2018-06-25T05:04:08.890Z,83.18
2018-06-25T05:06:38.010Z,83.87
2018-06-25T05:09:08.737Z,83.78
2018-06-25T05:11:37.842Z,83.17
2018-06-25T05:14:06.965Z,83.10
2018-06-25T05:16:36.081Z,83.97
2018-06-25T05:19:05.330Z,83.60
2018-06-25T05:21:34.469Z,82.89
2018-06-25T05:24:03.610Z,85.02
2018-06-25T05:26:32.729Z,84.18
2018-06-25T05:29:01.829Z,83.70
2018-06-25T05:31:30.969Z,83.67
2018-06-25T05:34:00.065Z,84.26
2018-06-25T05:36:29.218Z,84.59
2018-06-25T05:38:58.321Z,82.79
2018-06-25T05:41:27.433Z,83.81
2018-06-25T05:43:56.574Z,81.96
2018-06-25T05:46:25.746Z,83.01
2018-06-25T05:48:55.218Z,83.31
2018-06-25T05:51:24.321Z,83.26
2018-06-25T05:53:56.758Z,83.79
2018-06-25T05:56:25.885Z,83.52
2018-06-25T05:58:55.518Z,83.68
2018-06-25T06:01:24.694Z,83.61
2018-06-25T06:03:53.813Z,83.39
2018-06-25T06:06:23.293Z,83.70
2018-06-25T06:08:52.427Z,83.88
2018-06-25T06:11:21.854Z,84.03
2018-06-25T06:13:51.063Z,83.61
2018-06-25T06:16:20.193Z,84.07
2018-06-25T06:18:49.421Z,83.64
2018-06-25T06:21:18.814Z,82.91
2018-06-25T06:23:47.941Z,82.43
2018-06-25T06:26:17.064Z,81.26
2018-06-25T06:28:46.185Z,82.00
2018-06-25T06:31:15.314Z,81.88
2018-06-25T06:33:44.436Z,82.13
2018-06-25T06:36:13.549Z,81.41
2018-06-25T06:38:42.980Z,81.05
2018-06-25T06:41:12.077Z,80.66
2018-06-25T06:43:41.206Z,80.53
2018-06-25T06:46:10.356Z,80.38
2018-06-25T06:48:39.507Z,80.11
2018-06-25T06:51:08.653Z,80.06
2018-06-25T06:53:37.781Z,79.18
2018-06-25T06:56:06.929Z,78.40
2018-06-25T06:58:36.077Z,78.10
2018-06-25T07:01:05.224Z,78.25
2018-06-25T07:03:34.346Z,78.18
2018-06-25T07:06:03.498Z,78.74
2018-06-25T07:08:32.644Z,77.86
2018-06-25T07:11:01.806Z,78.51
2018-06-25T07:13:30.910Z,77.97
2018-06-25T07:16:00.033Z,77.87
2018-06-25T07:18:29.134Z,77.97
2018-06-25T07:20:58.265Z,77.20
2018-06-25T07:23:27.385Z,77.77
2018-06-25T07:25:56.534Z,77.66
2018-06-25T07:28:25.658Z,78.01
2018-06-25T07:30:54.815Z,77.22
2018-06-25T07:33:23.997Z,77.14
2018-06-25T07:35:53.122Z,77.89
2018-06-25T07:38:22.265Z,77.28
2018-06-25T07:40:51.377Z,76.23
2018-06-25T07:43:20.481Z,75.50
2018-06-25T07:45:49.605Z,75.92
2018-06-25T07:48:18.704Z,75.88
2018-06-25T07:50:47.874Z,76.30
2018-06-25T07:53:16.997Z,75.75
2018-06-25T07:55:46.081Z,75.33
2018-06-25T07:58:15.205Z,74.99
2018-06-25T08:00:44.333Z,74.94
2018-06-25T08:03:13.448Z,75.31
2018-06-25T08:05:42.559Z,74.89
2018-06-25T08:08:11.858Z,73.35
2018-06-25T08:10:41.022Z,73.41
2018-06-25T08:13:10.141Z,73.13
2018-06-25T08:15:39.244Z,73.10
2018-06-25T08:18:08.336Z,73.03
2018-06-25T08:20:37.486Z,71.06
2018-06-25T08:23:06.602Z,71.22
2018-06-25T08:25:35.702Z,71.57
2018-06-25T08:28:04.849Z,70.58
2018-06-25T08:30:33.981Z,70.09
2018-06-25T08:33:03.162Z,70.91
2018-06-25T08:35:32.271Z,69.78
2018-06-25T08:38:01.401Z,70.68
2018-06-25T08:40:30.521Z,71.03
2018-06-25T08:42:59.669Z,70.52
2018-06-25T08:45:28.818Z,70.79
2018-06-25T08:47:57.981Z,70.87
2018-06-25T08:50:27.117Z,70.34
2018-06-25T08:52:56.247Z,69.87
2018-06-25T08:55:25.386Z,68.85
2018-06-25T08:57:54.533Z,68.55
2018-06-25T09:00:23.617Z,68.56
2018-06-25T09:02:52.740Z,69.50
2018-06-25T09:05:21.843Z,69.63
2018-06-25T09:07:50.958Z,69.49
2018-06-25T09:10:20.089Z,69.26
2018-06-25T09:12:49.222Z,68.82
2018-06-25T09:15:18.385Z,68.75
2018-06-25T09:17:47.450Z,68.49
2018-06-25T09:20:16.565Z,68.54
2018-06-25T09:22:45.697Z,67.79
2018-06-25T09:25:14.830Z,68.92
2018-06-25T09:27:48.965Z,69.44
2018-06-25T09:30:19.329Z,68.39
2018-06-25T09:32:48.476Z,69.38
2018-06-25T09:35:17.611Z,69.09
2018-06-25T09:37:46.696Z,69.44
2018-06-25T09:40:15.861Z,69.87
2018-06-25T09:42:44.958Z,69.78
2018-06-25T09:45:14.086Z,68.72
2018-06-25T09:47:43.201Z,69.04
2018-06-25T09:50:12.333Z,68.60
2018-06-25T09:52:41.481Z,68.90
2018-06-25T09:55:10.623Z,68.33
2018-06-25T09:57:39.713Z,67.30
2018-06-25T10:00:08.845Z,67.61
2018-06-25T10:02:37.933Z,67.93
2018-06-25T10:05:07.062Z,66.88
2018-06-25T10:07:36.170Z,66.36
2018-06-25T10:10:05.248Z,66.81
2018-06-25T10:12:34.359Z,67.23
2018-06-25T10:15:03.522Z,67.62
2018-06-25T10:17:32.646Z,68.11
2018-06-25T10:20:01.750Z,67.88
2018-06-25T10:22:30.866Z,66.81
2018-06-25T10:24:59.993Z,67.41
2018-06-25T10:27:29.094Z,67.10
2018-06-25T10:29:58.221Z,66.99
2018-06-25T10:32:27.333Z,67.02
2018-06-25T10:34:56.577Z,67.00
2018-06-25T10:37:25.710Z,67.25
2018-06-25T10:39:54.809Z,67.04
2018-06-25T10:42:24.024Z,66.56
2018-06-25T10:44:53.363Z,67.00
2018-06-25T10:47:22.470Z,66.85
2018-06-25T10:49:51.601Z,66.78
2018-06-25T10:52:20.726Z,67.21
2018-06-25T10:54:49.861Z,67.51
2018-06-25T10:57:18.989Z,66.77
2018-06-25T10:59:48.196Z,67.34
2018-06-25T11:02:17.202Z,66.96
2018-06-25T11:04:46.311Z,65.84
2018-06-25T11:07:15.532Z,66.81
2018-06-25T11:09:44.543Z,66.42
2018-06-25T11:12:13.665Z,65.23
2018-06-25T11:14:42.818Z,64.96
2018-06-25T11:17:11.930Z,65.13
2018-06-25T11:19:41.067Z,64.71
2018-06-25T11:22:10.185Z,64.26
2018-06-25T11:24:39.298Z,62.04
2018-06-25T11:27:08.534Z,62.24
2018-06-25T11:29:37.550Z,60.57
2018-06-25T11:32:06.673Z,59.77
2018-06-25T11:34:35.800Z,60.01
2018-06-25T11:37:04.974Z,59.30
2018-06-25T11:39:34.086Z,59.44
2018-06-25T11:42:03.215Z,60.91
2018-06-25T11:44:32.330Z,61.01
2018-06-25T11:47:01.429Z,59.44
2018-06-25T11:49:30.529Z,60.95
2018-06-25T11:51:59.630Z,59.97
2018-06-25T11:54:28.747Z,61.34
2018-06-25T11:56:57.848Z,61.85
2018-06-25T11:59:27.029Z,61.41
2018-06-25T12:01:56.215Z,62.68
2018-06-25T12:04:25.264Z,62.35
2018-06-25T12:06:54.365Z,61.82
2018-06-25T12:09:23.487Z,60.88
2018-06-25T12:11:52.583Z,62.01
2018-06-25T12:14:21.717Z,62.42
2018-06-25T12:16:50.829Z,63.75
2018-06-25T12:19:19.967Z,64.02
2018-06-25T12:21:49.065Z,64.42
2018-06-25T12:24:18.165Z,63.34
2018-06-25T12:26:47.261Z,64.17
2018-06-25T12:29:16.365Z,64.17
2018-06-25T12:31:45.478Z,63.85
2018-06-25T12:34:14.869Z,63.95
2018-06-25T12:36:44.050Z,64.39
2018-06-25T12:39:13.157Z,63.26
2018-06-25T12:41:42.282Z,64.16
2018-06-25T12:44:11.421Z,63.38
2018-06-25T12:46:40.526Z,63.25
2018-06-25T12:49:09.654Z,63.16
2018-06-25T12:51:38.785Z,63.47
2018-06-25T12:54:07.946Z,63.52
2018-06-25T12:56:37.045Z,63.56
2018-06-25T12:59:06.169Z,63.32
2018-06-25T13:01:35.333Z,63.83
2018-06-25T13:04:04.396Z,63.14
2018-06-25T13:06:33.517Z,62.87
2018-06-25T13:09:02.699Z,62.31
2018-06-25T13:11:31.878Z,61.90
2018-06-25T13:14:00.985Z,61.46
2018-06-25T13:16:30.124Z,62.24
2018-06-25T13:18:59.253Z,61.16
2018-06-25T13:21:28.398Z,62.02
2018-06-25T13:23:57.593Z,61.47
2018-06-25T13:26:26.738Z,60.72
2018-06-25T13:28:55.897Z,59.41
2018-06-25T13:31:25.806Z,60.34
2018-06-25T13:33:54.983Z,60.04
2018-06-25T13:36:24.106Z,59.50
2018-06-25T13:38:53.225Z,60.75
2018-06-25T13:41:22.382Z,61.54
2018-06-25T13:43:51.489Z,62.85
2018-06-25T13:46:20.601Z,62.40
2018-06-25T13:48:49.721Z,61.38
2018-06-25T13:51:18.994Z,60.82
2018-06-25T13:53:48.217Z,60.00
2018-06-25T13:56:17.339Z,59.34
2018-06-25T13:58:46.477Z,59.85
2018-06-25T14:01:15.615Z,59.59
2018-06-25T14:03:44.753Z,59.40
2018-06-25T14:06:13.845Z,60.22
2018-06-25T14:08:42.977Z,60.49
2018-06-25T14:11:12.393Z,61.19
2018-06-25T14:13:41.505Z,61.23
2018-06-25T14:16:10.645Z,61.14
2018-06-25T14:18:39.789Z,61.43
2018-06-25T14:21:08.966Z,60.62
2018-06-25T14:23:41.880Z,61.02
2018-06-25T14:26:11.121Z,61.25
2018-06-25T14:28:40.233Z,61.13
2018-06-25T14:31:14.781Z,59.46
2018-06-25T14:33:48.314Z,58.92
2018-06-25T14:36:17.493Z,59.09
2018-06-25T14:38:46.626Z,57.97
2018-06-25T14:41:15.749Z,58.08
2018-06-25T14:43:44.852Z,58.54
2018-06-25T14:46:13.997Z,55.63
2018-06-25T14:48:43.185Z,56.49
2018-06-25T14:51:12.318Z,54.63
2018-06-25T14:53:41.445Z,54.58
2018-06-25T14:56:10.554Z,55.22
2018-06-25T14:58:39.685Z,54.43
2018-06-25T15:01:08.781Z,54.12
2018-06-25T15:03:39.149Z,56.03
2018-06-25T15:06:08.273Z,54.03
2018-06-25T15:08:37.369Z,53.76
2018-06-25T15:11:06.781Z,54.58
2018-06-25T15:13:35.881Z,54.85
2018-06-25T15:16:05.270Z,56.19
2018-06-25T15:18:34.362Z,55.73
2018-06-25T15:21:03.496Z,55.74
2018-06-25T15:26:01.574Z,55.42
2018-06-25T15:28:30.694Z,53.21
2018-06-25T15:30:59.797Z,53.98
2018-06-25T15:33:28.913Z,52.27
2018-06-25T15:35:58.069Z,52.13
2018-06-25T15:38:28.261Z,51.15
2018-06-25T15:40:57.653Z,50.20
2018-06-25T15:43:26.737Z,51.03
2018-06-25T15:45:55.845Z,52.35
2018-06-25T15:48:24.938Z,52.12
2018-06-25T15:50:54.052Z,52.00
2018-06-25T15:53:23.150Z,50.63
2018-06-25T15:55:52.288Z,50.62
2018-06-25T15:58:21.366Z,49.01
2018-06-25T16:00:50.449Z,49.49
2018-06-25T16:03:19.570Z,49.10
2018-06-25T16:05:48.674Z,49.25
2018-06-25T16:08:17.769Z,49.23
2018-06-25T16:10:46.856Z,48.80
2018-06-25T16:13:16.104Z,47.52
2018-06-25T16:15:45.266Z,47.99
2018-06-25T16:18:14.393Z,47.60
2018-06-25T16:20:43.577Z,47.86
2018-06-25T16:23:12.741Z,47.04
2018-06-25T16:25:41.878Z,46.87
2018-06-25T16:28:11.013Z,48.07
2018-06-25T16:30:40.122Z,47.65
2018-06-25T16:33:09.213Z,47.42
2018-06-25T16:35:38.419Z,46.86
2018-06-25T16:38:07.573Z,47.62
2018-06-25T16:40:36.720Z,45.75
2018-06-25T16:43:07.829Z,46.13
2018-06-25T16:45:36.949Z,47.27
2018-06-25T16:48:06.102Z,46.79
2018-06-25T16:50:35.207Z,46.46
2018-06-25T16:53:04.321Z,44.94
2018-06-25T16:55:33.469Z,45.24
2018-06-25T16:58:02.537Z,45.23
2018-06-25T17:00:31.698Z,46.31
2018-06-25T17:03:00.793Z,46.44
2018-06-25T17:05:29.917Z,46.52
2018-06-25T17:07:59.059Z,47.70
2018-06-25T17:10:28.190Z,48.78
2018-06-25T17:12:57.418Z,48.58
2018-06-25T17:15:26.542Z,48.54
2018-06-25T17:17:55.690Z,48.79
2018-06-25T17:20:24.868Z,48.49
2018-06-25T17:22:53.966Z,49.21
2018-06-25T17:25:23.117Z,49.00
2018-06-25T17:27:52.293Z,48.30
2018-06-25T17:30:21.397Z,48.54
2018-06-25T17:32:50.515Z,50.41
2018-06-25T17:35:19.601Z,49.97
2018-06-25T17:37:48.745Z,49.49
2018-06-25T17:40:18.038Z,48.72
2018-06-25T17:42:47.289Z,48.81
2018-06-25T17:45:16.393Z,49.64
2018-06-25T17:47:45.524Z,49.40
2018-06-25T17:50:14.649Z,50.97
2018-06-25T17:52:43.760Z,50.91
2018-06-25T17:55:12.949Z,50.63
2018-06-25T17:57:42.046Z,51.26
2018-06-25T18:00:11.189Z,52.08
2018-06-25T18:02:40.364Z,52.19
2018-06-25T18:05:09.461Z,52.22
2018-06-25T18:07:38.585Z,51.74
2018-06-25T18:10:07.734Z,52.11
2018-06-25T18:12:36.853Z,52.02
2018-06-25T18:15:06.186Z,51.36
2018-06-25T18:17:35.345Z,52.68
2018-06-25T18:20:04.841Z,52.49
2018-06-25T18:22:33.969Z,52.02
2018-06-25T18:25:03.217Z,52.75
2018-06-25T18:27:32.436Z,52.85
2018-06-25T18:30:02.652Z,52.37
2018-06-25T18:32:31.753Z,52.53
2018-06-25T18:35:00.861Z,53.12
2018-06-25T18:37:29.973Z,52.61
2018-06-25T18:39:59.090Z,52.85
2018-06-25T18:42:28.205Z,54.36
2018-06-25T18:44:57.319Z,54.93
2018-06-25T18:47:26.493Z,54.49
2018-06-25T18:49:55.566Z,55.87
2018-06-25T18:52:25.095Z,54.71
2018-06-25T18:54:54.374Z,56.16
2018-06-25T18:59:51.709Z,55.86
2018-06-25T19:02:20.813Z,57.04
2018-06-25T19:04:49.922Z,57.19
2018-06-25T19:07:20.129Z,57.19
2018-06-25T19:09:49.539Z,56.90
2018-06-25T19:12:18.669Z,57.23
2018-06-25T19:14:47.825Z,58.35
2018-06-25T19:17:17.018Z,57.79
2018-06-25T19:19:46.217Z,58.61
2018-06-25T19:22:15.579Z,58.47
2018-06-25T19:24:44.710Z,58.16
2018-06-25T19:27:13.821Z,59.47
2018-06-25T19:29:42.980Z,59.38
2018-06-25T19:32:12.082Z,59.89
2018-06-25T19:34:41.400Z,59.99
2018-06-25T19:37:10.783Z,59.85
2018-06-25T19:39:40.370Z,60.00
2018-06-25T19:42:09.533Z,60.16
2018-06-25T19:44:39.198Z,60.78
2018-06-25T19:47:08.434Z,61.38
2018-06-25T19:49:37.568Z,61.71
2018-06-25T19:52:06.682Z,62.33
2018-06-25T19:54:36.329Z,62.94
2018-06-25T19:57:05.449Z,62.35
2018-06-25T19:59:34.614Z,62.63
2018-06-25T20:02:03.701Z,62.97
2018-06-25T20:04:32.874Z,63.04
2018-06-25T20:07:02.057Z,63.25
2018-06-25T20:09:31.153Z,63.89
2018-06-25T20:12:00.529Z,63.12
2018-06-25T20:14:29.651Z,63.55
2018-06-25T20:16:58.749Z,64.12
2018-06-25T20:19:27.872Z,64.13
2018-06-25T20:21:59.289Z,65.06
2018-06-25T20:24:28.397Z,65.52
2018-06-25T20:26:57.498Z,64.58
2018-06-25T20:29:26.614Z,65.13
2018-06-25T20:31:55.798Z,65.38
2018-06-25T20:34:25.385Z,65.65
2018-06-25T20:36:54.786Z,65.44
2018-06-25T20:39:23.893Z,66.25
2018-06-25T20:41:53.007Z,65.61
2018-06-25T20:44:24.141Z,66.59
2018-06-25T20:46:53.386Z,66.21
2018-06-25T20:49:22.444Z,67.46
2018-06-25T20:51:57.497Z,67.93
2018-06-25T20:54:27.409Z,68.11
2018-06-25T20:56:56.590Z,67.64
2018-06-25T20:59:25.667Z,66.94
2018-06-25T21:01:54.805Z,67.93
2018-06-25T21:04:23.914Z,68.42
2018-06-25T21:06:53.002Z,67.28
2018-06-25T21:09:22.128Z,67.11
2018-06-25T21:11:51.293Z,67.87
2018-06-25T21:14:20.413Z,68.23
2018-06-25T21:16:49.558Z,67.57
2018-06-25T21:19:18.726Z,68.41
2018-06-25T21:21:47.862Z,67.88
2018-06-25T21:24:17.028Z,68.72
2018-06-25T21:26:46.101Z,68.63
2018-06-25T21:29:15.238Z,69.67
2018-06-25T21:31:45.013Z,68.29
2018-06-25T21:34:14.185Z,68.50
2018-06-25T21:36:43.360Z,68.35
2018-06-25T21:39:12.921Z,68.06
2018-06-25T21:41:42.069Z,68.59
2018-06-25T21:44:11.221Z,69.00
2018-06-25T21:46:40.322Z,68.87
2018-06-25T21:49:09.458Z,69.23
2018-06-25T21:51:38.645Z,68.50
2018-06-25T21:54:07.745Z,70.23
2018-06-25T21:56:36.894Z,69.63
2018-06-25T21:59:05.989Z,68.49
2018-06-25T22:01:35.190Z,68.80
2018-06-25T22:04:04.341Z,69.63
2018-06-25T22:06:33.470Z,69.69
2018-06-25T22:09:02.561Z,70.03
2018-06-25T22:11:31.666Z,69.72
2018-06-25T22:14:00.780Z,69.33
2018-06-25T22:16:29.865Z,69.79
2018-06-25T22:18:59.006Z,70.15
2018-06-25T22:21:28.110Z,69.64
2018-06-25T22:23:57.221Z,69.89
2018-06-25T22:26:26.338Z,70.82
2018-06-25T22:28:55.441Z,70.35
2018-06-25T22:31:24.637Z,71.77
2018-06-25T22:33:53.746Z,71.19
2018-06-25T22:36:22.997Z,71.06
2018-06-25T22:38:52.154Z,71.29
2018-06-25T22:41:22.149Z,72.17
2018-06-25T22:43:51.530Z,71.89
2018-06-25T22:46:20.665Z,71.94
2018-06-25T22:48:49.758Z,71.99
2018-06-25T22:51:18.897Z,70.76
2018-06-25T22:53:48.005Z,72.35
2018-06-25T22:56:17.129Z,72.54
2018-06-25T22:58:46.285Z,71.46
2018-06-25T23:01:15.635Z,72.37
2018-06-25T23:03:45.631Z,73.08
2018-06-25T23:06:14.693Z,71.82
2018-06-25T23:08:43.866Z,73.08
2018-06-25T23:11:13.210Z,73.01
2018-06-25T23:13:42.321Z,72.51
2018-06-25T23:16:11.417Z,72.04
2018-06-25T23:18:40.531Z,72.32
2018-06-25T23:21:09.649Z,72.62
2018-06-25T23:23:38.746Z,72.10
2018-06-25T23:26:08.242Z,71.95
2018-06-25T23:28:37.337Z,71.04
2018-06-25T23:31:06.457Z,71.22
2018-06-25T23:33:35.582Z,71.88
2018-06-25T23:36:04.741Z,72.63
2018-06-25T23:38:33.877Z,72.79
2018-06-25T23:41:02.966Z,72.75
2018-06-25T23:43:32.130Z,72.30
2018-06-25T23:46:01.225Z,71.83
2018-06-25T23:48:30.586Z,72.68
2018-06-25T23:50:59.694Z,72.78
2018-06-25T23:53:28.800Z,74.05
2018-06-25T23:55:58.022Z,72.97
2018-06-25T23:58:27.117Z,74.76
